Chebba, Tunisia
Current Conditions -  °F | °C
As of 6:30 PM on Saturday 20 Dec 2014 (Local Time) from DTMB Reporting Station
Few Clouds Few Clouds  
Wind Chill: 66°   Ceiling: Unl
Heat Index: 66°   Visibility: 6mi
Dew Point: 54°   Wind: 15mph
Humidity: 64%   Direction: 310°NW
Pressure: 30.3"   Gusts: NA
Location:  35.24°N, 11.12°E
Report Text: DTMB 201730Z 31013KT 280V340 9999 FEW020 19/12 Q1026 NOSIG
Loading
Personal Weather Stations






























Interactive Weather Map New forecast layout! Learn more

10-Day Weather Forecast

Advertisements
Track Severe Weather on mobile